sensor_id;sensor_type;location;lat;lon;timestamp;temperature;humidity
12911;DHT22;6523;49.758;6.120;2024-02-23T00:02:15;6.10;99.90
12911;DHT22;6523;49.758;6.120;2024-02-23T00:04:41;6.00;99.90
12911;DHT22;6523;49.758;6.120;2024-02-23T00:07:07;6.10;99.90
12911;DHT22;6523;49.758;6.120;2024-02-23T00:09:33;6.00;99.90
12911;DHT22;6523;49.758;6.120;2024-02-23T00:11:59;6.00;99.90
12911;DHT22;6523;49.758;6.120;2024-02-23T00:14:25;6.10;99.90
12911;DHT22;6523;49.758;6.120;2024-02-23T00:16:51;6.10;99.90
12911;DHT22;6523;49.758;6.120;2024-02-23T00:19:16;6.10;99.90
12911;DHT22;6523;49.758;6.120;2024-02-23T00:21:44;6.00;99.90
12911;DHT22;6523;49.758;6.120;2024-02-23T00:24:15;5.90;99.90
12911;DHT22;6523;49.758;6.120;2024-02-23T00:26:42;6.00;99.90
12911;DHT22;6523;49.758;6.120;2024-02-23T00:29:07;5.90;99.90
12911;DHT22;6523;49.758;6.120;2024-02-23T00:31:33;5.90;99.90
12911;DHT22;6523;49.758;6.120;2024-02-23T00:33:59;5.90;99.90
12911;DHT22;6523;49.758;6.120;2024-02-23T00:36:24;5.80;99.90
12911;DHT22;6523;49.758;6.120;2024-02-23T00:38:50;5.80;99.90
12911;DHT22;6523;49.758;6.120;2024-02-23T00:41:16;5.80;99.90
12911;DHT22;6523;49.758;6.120;2024-02-23T00:43:41;5.80;99.90
12911;DHT22;6523;49.758;6.120;2024-02-23T00:46:10;5.80;99.90
12911;DHT22;6523;49.758;6.120;2024-02-23T00:48:36;5.80;99.90
12911;DHT22;6523;49.758;6.120;2024-02-23T00:51:02;5.60;99.90
12911;DHT22;6523;49.758;6.120;2024-02-23T00:53:30;5.70;99.90
12911;DHT22;6523;49.758;6.120;2024-02-23T00:55:56;5.70;99.90
12911;DHT22;6523;49.758;6.120;2024-02-23T00:58:21;5.70;99.90
12911;DHT22;6523;49.758;6.120;2024-02-23T01:00:47;5.60;99.90
12911;DHT22;6523;49.758;6.120;2024-02-23T01:03:12;5.70;99.90
12911;DHT22;6523;49.758;6.120;2024-02-23T01:05:38;5.60;99.90
12911;DHT22;6523;49.758;6.120;2024-02-23T01:08:05;5.70;99.90
12911;DHT22;6523;49.758;6.120;2024-02-23T01:10:31;5.70;99.90
12911;DHT22;6523;49.758;6.120;2024-02-23T01:12:56;5.70;99.90
12911;DHT22;6523;49.758;6.120;2024-02-23T01:15:22;5.70;99.90
12911;DHT22;6523;49.758;6.120;2024-02-23T01:17:48;5.70;99.90
12911;DHT22;6523;49.758;6.120;2024-02-23T01:20:14;5.70;99.90
12911;DHT22;6523;49.758;6.120;2024-02-23T01:22:39;5.70;99.90
12911;DHT22;6523;49.758;6.120;2024-02-23T01:25:05;5.70;99.90
12911;DHT22;6523;49.758;6.120;2024-02-23T01:27:31;5.70;99.90
12911;DHT22;6523;49.758;6.120;2024-02-23T01:29:57;5.60;99.90
12911;DHT22;6523;49.758;6.120;2024-02-23T01:32:22;5.60;99.90
12911;DHT22;6523;49.758;6.120;2024-02-23T01:34:48;5.60;99.90
12911;DHT22;6523;49.758;6.120;2024-02-23T01:37:14;5.60;99.90
12911;DHT22;6523;49.758;6.120;2024-02-23T01:39:40;5.60;99.90
12911;DHT22;6523;49.758;6.120;2024-02-23T01:42:05;5.50;99.90
12911;DHT22;6523;49.758;6.120;2024-02-23T01:44:31;5.50;99.90
12911;DHT22;6523;49.758;6.120;2024-02-23T01:46:57;5.50;99.90
12911;DHT22;6523;49.758;6.120;2024-02-23T01:49:22;5.40;99.90
12911;DHT22;6523;49.758;6.120;2024-02-23T01:51:58;5.40;99.90
12911;DHT22;6523;49.758;6.120;2024-02-23T01:54:24;5.40;99.90
12911;DHT22;6523;49.758;6.120;2024-02-23T01:56:51;5.40;99.90
12911;DHT22;6523;49.758;6.120;2024-02-23T01:59:16;5.40;99.90
12911;DHT22;6523;49.758;6.120;2024-02-23T02:01:45;5.30;99.90
12911;DHT22;6523;49.758;6.120;2024-02-23T02:04:11;5.20;99.90
12911;DHT22;6523;49.758;6.120;2024-02-23T02:06:37;5.20;99.90
12911;DHT22;6523;49.758;6.120;2024-02-23T02:09:03;5.10;99.90
12911;DHT22;6523;49.758;6.120;2024-02-23T02:11:28;5.10;99.90
12911;DHT22;6523;49.758;6.120;2024-02-23T02:13:54;5.10;99.90
12911;DHT22;6523;49.758;6.120;2024-02-23T02:16:19;4.90;99.90
12911;DHT22;6523;49.758;6.120;2024-02-23T02:18:45;4.70;99.90
12911;DHT22;6523;49.758;6.120;2024-02-23T02:21:11;4.70;99.90
12911;DHT22;6523;49.758;6.120;2024-02-23T02:23:37;4.60;99.90
12911;DHT22;6523;49.758;6.120;2024-02-23T02:26:03;4.60;99.90
12911;DHT22;6523;49.758;6.120;2024-02-23T02:28:29;4.60;99.90
12911;DHT22;6523;49.758;6.120;2024-02-23T02:30:55;4.50;99.90
12911;DHT22;6523;49.758;6.120;2024-02-23T02:33:22;4.40;99.90
12911;DHT22;6523;49.758;6.120;2024-02-23T02:35:48;4.40;99.90
12911;DHT22;6523;49.758;6.120;2024-02-23T02:38:15;4.30;99.90
12911;DHT22;6523;49.758;6.120;2024-02-23T02:40:41;4.30;99.90
12911;DHT22;6523;49.758;6.120;2024-02-23T02:43:07;4.30;99.90
12911;DHT22;6523;49.758;6.120;2024-02-23T02:45:33;4.30;99.90
12911;DHT22;6523;49.758;6.120;2024-02-23T02:48:00;4.30;99.90
12911;DHT22;6523;49.758;6.120;2024-02-23T02:50:27;4.40;99.90
12911;DHT22;6523;49.758;6.120;2024-02-23T02:52:53;4.40;99.90
12911;DHT22;6523;49.758;6.120;2024-02-23T02:55:18;4.40;99.90
12911;DHT22;6523;49.758;6.120;2024-02-23T02:57:44;4.50;99.90
12911;DHT22;6523;49.758;6.120;2024-02-23T03:00:11;4.50;99.90
12911;DHT22;6523;49.758;6.120;2024-02-23T03:02:37;4.50;99.90
12911;DHT22;6523;49.758;6.120;2024-02-23T03:05:02;4.60;99.90
12911;DHT22;6523;49.758;6.120;2024-02-23T03:07:28;4.60;99.90
12911;DHT22;6523;49.758;6.120;2024-02-23T03:09:54;4.60;99.90
12911;DHT22;6523;49.758;6.120;2024-02-23T03:12:20;4.70;99.90
12911;DHT22;6523;49.758;6.120;2024-02-23T03:14:46;4.70;99.90
12911;DHT22;6523;49.758;6.120;2024-02-23T03:17:11;4.70;99.90
12911;DHT22;6523;49.758;6.120;2024-02-23T03:19:38;4.70;99.90
12911;DHT22;6523;49.758;6.120;2024-02-23T03:22:04;4.60;99.90
12911;DHT22;6523;49.758;6.120;2024-02-23T03:24:30;4.70;99.90
12911;DHT22;6523;49.758;6.120;2024-02-23T03:26:55;4.60;99.90
12911;DHT22;6523;49.758;6.120;2024-02-23T03:29:22;4.60;99.90
12911;DHT22;6523;49.758;6.120;2024-02-23T03:31:55;4.60;99.90
12911;DHT22;6523;49.758;6.120;2024-02-23T03:34:21;4.60;99.90
12911;DHT22;6523;49.758;6.120;2024-02-23T03:36:46;4.70;99.90
12911;DHT22;6523;49.758;6.120;2024-02-23T03:39:13;4.70;99.90
12911;DHT22;6523;49.758;6.120;2024-02-23T03:41:39;4.80;99.90
12911;DHT22;6523;49.758;6.120;2024-02-23T03:44:04;4.90;99.90
12911;DHT22;6523;49.758;6.120;2024-02-23T03:46:30;5.00;99.90
12911;DHT22;6523;49.758;6.120;2024-02-23T03:48:56;5.00;99.90
12911;DHT22;6523;49.758;6.120;2024-02-23T03:51:23;5.00;99.90
12911;DHT22;6523;49.758;6.120;2024-02-23T03:53:49;5.00;99.90
12911;DHT22;6523;49.758;6.120;2024-02-23T03:56:14;5.00;99.90
12911;DHT22;6523;49.758;6.120;2024-02-23T03:58:40;5.00;99.90
12911;DHT22;6523;49.758;6.120;2024-02-23T04:01:06;5.00;99.90
12911;DHT22;6523;49.758;6.120;2024-02-23T04:03:31;5.00;99.90
12911;DHT22;6523;49.758;6.120;2024-02-23T04:05:57;5.00;99.90
12911;DHT22;6523;49.758;6.120;2024-02-23T04:08:22;5.00;99.90
12911;DHT22;6523;49.758;6.120;2024-02-23T04:10:48;5.10;99.90
12911;DHT22;6523;49.758;6.120;2024-02-23T04:13:13;5.00;99.90
12911;DHT22;6523;49.758;6.120;2024-02-23T04:15:40;5.00;99.90
12911;DHT22;6523;49.758;6.120;2024-02-23T04:18:06;5.00;99.90
12911;DHT22;6523;49.758;6.120;2024-02-23T04:20:31;5.00;99.90
12911;DHT22;6523;49.758;6.120;2024-02-23T04:22:58;4.90;99.90
12911;DHT22;6523;49.758;6.120;2024-02-23T04:25:24;5.00;99.90
12911;DHT22;6523;49.758;6.120;2024-02-23T04:27:49;5.00;99.90
12911;DHT22;6523;49.758;6.120;2024-02-23T04:30:15;5.00;99.90
12911;DHT22;6523;49.758;6.120;2024-02-23T04:32:40;5.00;99.90
12911;DHT22;6523;49.758;6.120;2024-02-23T04:35:07;5.00;99.90
12911;DHT22;6523;49.758;6.120;2024-02-23T04:37:33;5.00;99.90
12911;DHT22;6523;49.758;6.120;2024-02-23T04:39:59;5.00;99.90
12911;DHT22;6523;49.758;6.120;2024-02-23T04:42:24;5.00;99.90
12911;DHT22;6523;49.758;6.120;2024-02-23T04:44:50;5.00;99.90
12911;DHT22;6523;49.758;6.120;2024-02-23T04:47:18;4.90;99.90
12911;DHT22;6523;49.758;6.120;2024-02-23T04:49:43;5.00;99.90
12911;DHT22;6523;49.758;6.120;2024-02-23T04:52:09;5.00;99.90
12911;DHT22;6523;49.758;6.120;2024-02-23T04:54:34;4.90;99.90
12911;DHT22;6523;49.758;6.120;2024-02-23T04:57:00;4.90;99.90
12911;DHT22;6523;49.758;6.120;2024-02-23T04:59:26;4.80;99.90
12911;DHT22;6523;49.758;6.120;2024-02-23T05:01:51;4.90;99.90
12911;DHT22;6523;49.758;6.120;2024-02-23T05:04:17;4.80;99.90
12911;DHT22;6523;49.758;6.120;2024-02-23T05:06:42;4.80;99.90
12911;DHT22;6523;49.758;6.120;2024-02-23T05:09:09;4.80;99.90
12911;DHT22;6523;49.758;6.120;2024-02-23T05:11:35;4.90;99.90
12911;DHT22;6523;49.758;6.120;2024-02-23T05:14:00;4.80;99.90
12911;DHT22;6523;49.758;6.120;2024-02-23T05:16:26;4.80;99.90
12911;DHT22;6523;49.758;6.120;2024-02-23T05:18:52;4.80;99.90
12911;DHT22;6523;49.758;6.120;2024-02-23T05:21:17;4.80;99.90
12911;DHT22;6523;49.758;6.120;2024-02-23T05:23:43;4.70;99.90
12911;DHT22;6523;49.758;6.120;2024-02-23T05:26:09;4.70;99.90
12911;DHT22;6523;49.758;6.120;2024-02-23T05:28:36;4.70;99.90
12911;DHT22;6523;49.758;6.120;2024-02-23T05:31:02;4.70;99.90
12911;DHT22;6523;49.758;6.120;2024-02-23T05:33:29;4.70;99.90
12911;DHT22;6523;49.758;6.120;2024-02-23T05:35:54;4.80;99.90
12911;DHT22;6523;49.758;6.120;2024-02-23T05:38:20;4.80;99.90
12911;DHT22;6523;49.758;6.120;2024-02-23T05:40:46;4.80;99.90
12911;DHT22;6523;49.758;6.120;2024-02-23T05:43:12;4.80;99.90
12911;DHT22;6523;49.758;6.120;2024-02-23T05:45:38;4.80;99.90
12911;DHT22;6523;49.758;6.120;2024-02-23T05:48:04;4.80;99.90
12911;DHT22;6523;49.758;6.120;2024-02-23T05:50:29;4.80;99.90
12911;DHT22;6523;49.758;6.120;2024-02-23T05:52:55;4.80;99.90
12911;DHT22;6523;49.758;6.120;2024-02-23T05:55:20;4.80;99.90
12911;DHT22;6523;49.758;6.120;2024-02-23T05:57:46;4.80;99.90
12911;DHT22;6523;49.758;6.120;2024-02-23T06:00:12;4.80;99.90
12911;DHT22;6523;49.758;6.120;2024-02-23T06:02:38;4.80;99.90
12911;DHT22;6523;49.758;6.120;2024-02-23T06:05:05;4.80;99.90
12911;DHT22;6523;49.758;6.120;2024-02-23T06:07:33;4.80;99.90
12911;DHT22;6523;49.758;6.120;2024-02-23T06:09:59;4.80;99.90
12911;DHT22;6523;49.758;6.120;2024-02-23T06:12:24;4.80;99.90
12911;DHT22;6523;49.758;6.120;2024-02-23T06:14:51;4.80;99.90
12911;DHT22;6523;49.758;6.120;2024-02-23T06:17:16;4.80;99.90
12911;DHT22;6523;49.758;6.120;2024-02-23T06:19:42;4.80;99.90
12911;DHT22;6523;49.758;6.120;2024-02-23T06:22:08;4.80;99.90
12911;DHT22;6523;49.758;6.120;2024-02-23T06:24:35;4.80;99.90
12911;DHT22;6523;49.758;6.120;2024-02-23T06:27:01;4.70;99.90
12911;DHT22;6523;49.758;6.120;2024-02-23T06:29:28;4.70;99.90
12911;DHT22;6523;49.758;6.120;2024-02-23T06:31:55;4.80;99.90
12911;DHT22;6523;49.758;6.120;2024-02-23T06:34:20;4.80;99.90
12911;DHT22;6523;49.758;6.120;2024-02-23T06:36:46;4.80;99.90
12911;DHT22;6523;49.758;6.120;2024-02-23T06:39:12;4.70;99.90
12911;DHT22;6523;49.758;6.120;2024-02-23T06:41:38;4.70;99.90
12911;DHT22;6523;49.758;6.120;2024-02-23T06:44:07;4.70;99.90
12911;DHT22;6523;49.758;6.120;2024-02-23T06:46:32;4.70;99.90
12911;DHT22;6523;49.758;6.120;2024-02-23T06:48:58;4.70;99.90
12911;DHT22;6523;49.758;6.120;2024-02-23T06:51:23;4.70;99.90
12911;DHT22;6523;49.758;6.120;2024-02-23T06:53:49;4.80;99.90
12911;DHT22;6523;49.758;6.120;2024-02-23T06:56:14;4.80;99.90
12911;DHT22;6523;49.758;6.120;2024-02-23T06:58:40;4.80;99.90
12911;DHT22;6523;49.758;6.120;2024-02-23T07:01:06;4.80;99.90
12911;DHT22;6523;49.758;6.120;2024-02-23T07:03:33;4.90;99.90
12911;DHT22;6523;49.758;6.120;2024-02-23T07:05:58;4.90;99.90
12911;DHT22;6523;49.758;6.120;2024-02-23T07:08:24;4.90;99.90
12911;DHT22;6523;49.758;6.120;2024-02-23T07:10:50;5.00;99.90
12911;DHT22;6523;49.758;6.120;2024-02-23T07:13:15;5.00;99.90
12911;DHT22;6523;49.758;6.120;2024-02-23T07:15:42;5.00;99.90
12911;DHT22;6523;49.758;6.120;2024-02-23T07:18:08;5.10;99.90
12911;DHT22;6523;49.758;6.120;2024-02-23T07:20:35;5.10;99.90
12911;DHT22;6523;49.758;6.120;2024-02-23T07:23:01;5.10;99.90
12911;DHT22;6523;49.758;6.120;2024-02-23T07:25:26;5.10;99.90
12911;DHT22;6523;49.758;6.120;2024-02-23T07:27:52;5.00;99.90
12911;DHT22;6523;49.758;6.120;2024-02-23T07:30:18;5.10;99.90
12911;DHT22;6523;49.758;6.120;2024-02-23T07:32:44;5.10;99.90
12911;DHT22;6523;49.758;6.120;2024-02-23T07:35:11;5.10;99.90
12911;DHT22;6523;49.758;6.120;2024-02-23T07:37:37;5.20;99.90
12911;DHT22;6523;49.758;6.120;2024-02-23T07:40:03;5.30;99.90
12911;DHT22;6523;49.758;6.120;2024-02-23T07:42:30;5.30;99.90
12911;DHT22;6523;49.758;6.120;2024-02-23T07:44:55;5.30;99.90
12911;DHT22;6523;49.758;6.120;2024-02-23T07:47:21;5.30;99.90
12911;DHT22;6523;49.758;6.120;2024-02-23T07:49:47;5.30;99.90
12911;DHT22;6523;49.758;6.120;2024-02-23T07:52:13;5.30;99.90
12911;DHT22;6523;49.758;6.120;2024-02-23T07:54:38;5.40;99.90
12911;DHT22;6523;49.758;6.120;2024-02-23T07:57:04;5.40;99.90
12911;DHT22;6523;49.758;6.120;2024-02-23T07:59:30;5.50;99.90
12911;DHT22;6523;49.758;6.120;2024-02-23T08:01:56;5.50;99.90
12911;DHT22;6523;49.758;6.120;2024-02-23T08:04:22;5.50;99.90
12911;DHT22;6523;49.758;6.120;2024-02-23T08:06:48;5.60;99.90
12911;DHT22;6523;49.758;6.120;2024-02-23T08:09:14;5.60;99.90
12911;DHT22;6523;49.758;6.120;2024-02-23T08:11:40;5.60;99.90
12911;DHT22;6523;49.758;6.120;2024-02-23T08:14:05;5.60;99.90
12911;DHT22;6523;49.758;6.120;2024-02-23T08:16:31;5.70;99.90
12911;DHT22;6523;49.758;6.120;2024-02-23T08:18:57;5.70;99.90
12911;DHT22;6523;49.758;6.120;2024-02-23T08:21:23;5.70;99.90
12911;DHT22;6523;49.758;6.120;2024-02-23T08:23:48;5.80;99.90
12911;DHT22;6523;49.758;6.120;2024-02-23T08:26:14;5.80;99.90
12911;DHT22;6523;49.758;6.120;2024-02-23T08:28:40;5.90;99.90
12911;DHT22;6523;49.758;6.120;2024-02-23T08:31:06;5.90;99.90
12911;DHT22;6523;49.758;6.120;2024-02-23T08:33:31;5.90;99.90
12911;DHT22;6523;49.758;6.120;2024-02-23T08:35:57;6.00;99.90
12911;DHT22;6523;49.758;6.120;2024-02-23T08:38:22;6.00;99.90
12911;DHT22;6523;49.758;6.120;2024-02-23T08:40:48;6.10;99.90
12911;DHT22;6523;49.758;6.120;2024-02-23T08:43:14;6.10;99.90
12911;DHT22;6523;49.758;6.120;2024-02-23T08:45:40;6.10;99.90
12911;DHT22;6523;49.758;6.120;2024-02-23T08:48:06;6.10;99.90
12911;DHT22;6523;49.758;6.120;2024-02-23T08:50:32;6.10;99.90
12911;DHT22;6523;49.758;6.120;2024-02-23T08:52:59;6.00;99.90
12911;DHT22;6523;49.758;6.120;2024-02-23T08:55:24;6.00;99.90
12911;DHT22;6523;49.758;6.120;2024-02-23T08:57:50;6.00;99.90
12911;DHT22;6523;49.758;6.120;2024-02-23T09:00:16;6.00;99.90
12911;DHT22;6523;49.758;6.120;2024-02-23T09:02:41;6.10;99.90
12911;DHT22;6523;49.758;6.120;2024-02-23T09:05:08;6.10;99.90
12911;DHT22;6523;49.758;6.120;2024-02-23T09:07:34;6.10;99.90
12911;DHT22;6523;49.758;6.120;2024-02-23T09:10:00;6.10;99.90
12911;DHT22;6523;49.758;6.120;2024-02-23T09:12:26;6.20;99.90
12911;DHT22;6523;49.758;6.120;2024-02-23T09:14:51;6.30;99.90
12911;DHT22;6523;49.758;6.120;2024-02-23T09:17:17;6.50;99.90
12911;DHT22;6523;49.758;6.120;2024-02-23T09:19:44;6.60;99.90
12911;DHT22;6523;49.758;6.120;2024-02-23T09:22:10;6.60;99.90
12911;DHT22;6523;49.758;6.120;2024-02-23T09:24:40;6.50;99.90
12911;DHT22;6523;49.758;6.120;2024-02-23T09:27:06;6.40;99.90
12911;DHT22;6523;49.758;6.120;2024-02-23T09:29:32;6.20;99.90
12911;DHT22;6523;49.758;6.120;2024-02-23T09:31:58;6.10;99.90
12911;DHT22;6523;49.758;6.120;2024-02-23T09:34:24;6.10;99.90
12911;DHT22;6523;49.758;6.120;2024-02-23T09:36:50;6.00;99.90
12911;DHT22;6523;49.758;6.120;2024-02-23T09:39:16;6.00;99.90
12911;DHT22;6523;49.758;6.120;2024-02-23T09:41:42;6.10;99.90
12911;DHT22;6523;49.758;6.120;2024-02-23T09:44:08;6.20;99.90
12911;DHT22;6523;49.758;6.120;2024-02-23T09:46:36;6.30;99.90
12911;DHT22;6523;49.758;6.120;2024-02-23T09:49:03;6.40;99.90
12911;DHT22;6523;49.758;6.120;2024-02-23T09:51:29;6.50;99.90
12911;DHT22;6523;49.758;6.120;2024-02-23T09:53:56;6.70;99.90
12911;DHT22;6523;49.758;6.120;2024-02-23T09:56:27;6.60;99.90
12911;DHT22;6523;49.758;6.120;2024-02-23T09:58:56;6.70;99.90
12911;DHT22;6523;49.758;6.120;2024-02-23T10:01:28;6.80;99.90
12911;DHT22;6523;49.758;6.120;2024-02-23T10:03:57;6.80;99.90
12911;DHT22;6523;49.758;6.120;2024-02-23T10:06:26;6.80;99.90
12911;DHT22;6523;49.758;6.120;2024-02-23T10:08:53;6.70;99.90
12911;DHT22;6523;49.758;6.120;2024-02-23T10:11:22;6.70;99.90
12911;DHT22;6523;49.758;6.120;2024-02-23T10:13:48;6.70;99.90
12911;DHT22;6523;49.758;6.120;2024-02-23T10:16:18;6.70;99.90
12911;DHT22;6523;49.758;6.120;2024-02-23T10:18:46;6.80;99.90
12911;DHT22;6523;49.758;6.120;2024-02-23T10:21:16;6.80;99.90
12911;DHT22;6523;49.758;6.120;2024-02-23T10:23:44;6.80;99.90
12911;DHT22;6523;49.758;6.120;2024-02-23T10:26:10;7.00;99.90
12911;DHT22;6523;49.758;6.120;2024-02-23T10:28:37;7.10;99.90
12911;DHT22;6523;49.758;6.120;2024-02-23T10:31:06;7.10;99.90
12911;DHT22;6523;49.758;6.120;2024-02-23T10:33:32;7.10;99.90
12911;DHT22;6523;49.758;6.120;2024-02-23T10:35:58;7.20;99.90
12911;DHT22;6523;49.758;6.120;2024-02-23T10:38:29;7.30;99.90
12911;DHT22;6523;49.758;6.120;2024-02-23T10:40:57;7.30;99.90
12911;DHT22;6523;49.758;6.120;2024-02-23T10:43:30;7.10;99.90
12911;DHT22;6523;49.758;6.120;2024-02-23T10:45:57;7.10;99.90
12911;DHT22;6523;49.758;6.120;2024-02-23T10:48:25;7.10;99.90
12911;DHT22;6523;49.758;6.120;2024-02-23T10:50:53;7.20;99.90
12911;DHT22;6523;49.758;6.120;2024-02-23T10:53:19;7.10;99.90
12911;DHT22;6523;49.758;6.120;2024-02-23T10:55:45;7.10;99.90
12911;DHT22;6523;49.758;6.120;2024-02-23T10:58:11;7.00;99.90
12911;DHT22;6523;49.758;6.120;2024-02-23T11:00:39;7.00;99.90
12911;DHT22;6523;49.758;6.120;2024-02-23T11:03:06;7.00;99.90
12911;DHT22;6523;49.758;6.120;2024-02-23T11:05:33;7.10;99.90
12911;DHT22;6523;49.758;6.120;2024-02-23T11:07:59;7.10;99.90
12911;DHT22;6523;49.758;6.120;2024-02-23T11:10:25;7.10;99.90
12911;DHT22;6523;49.758;6.120;2024-02-23T11:13:07;7.20;99.90
12911;DHT22;6523;49.758;6.120;2024-02-23T11:15:33;7.10;99.90
12911;DHT22;6523;49.758;6.120;2024-02-23T11:18:27;7.60;99.90
12911;DHT22;6523;49.758;6.120;2024-02-23T11:20:55;7.50;99.90
12911;DHT22;6523;49.758;6.120;2024-02-23T11:23:23;7.20;99.90
12911;DHT22;6523;49.758;6.120;2024-02-23T11:26:05;7.20;99.90
12911;DHT22;6523;49.758;6.120;2024-02-23T11:28:32;7.30;99.90
12911;DHT22;6523;49.758;6.120;2024-02-23T11:30:57;7.30;99.90
12911;DHT22;6523;49.758;6.120;2024-02-23T11:33:37;7.20;99.90
12911;DHT22;6523;49.758;6.120;2024-02-23T11:36:07;7.20;99.90
12911;DHT22;6523;49.758;6.120;2024-02-23T11:38:33;7.30;99.90
12911;DHT22;6523;49.758;6.120;2024-02-23T11:41:00;7.20;99.90
12911;DHT22;6523;49.758;6.120;2024-02-23T11:43:26;7.20;99.90
12911;DHT22;6523;49.758;6.120;2024-02-23T11:45:53;7.10;99.90
12911;DHT22;6523;49.758;6.120;2024-02-23T11:48:18;7.10;99.90
12911;DHT22;6523;49.758;6.120;2024-02-23T11:50:45;7.30;99.90
12911;DHT22;6523;49.758;6.120;2024-02-23T11:53:10;7.30;99.90
12911;DHT22;6523;49.758;6.120;2024-02-23T11:55:36;7.30;99.90
12911;DHT22;6523;49.758;6.120;2024-02-23T11:58:02;7.30;99.90
12911;DHT22;6523;49.758;6.120;2024-02-23T12:00:28;7.30;99.90
12911;DHT22;6523;49.758;6.120;2024-02-23T12:02:55;7.50;99.90
12911;DHT22;6523;49.758;6.120;2024-02-23T12:05:21;7.50;99.90
12911;DHT22;6523;49.758;6.120;2024-02-23T12:07:47;7.30;99.90
12911;DHT22;6523;49.758;6.120;2024-02-23T12:10:13;7.40;99.90
12911;DHT22;6523;49.758;6.120;2024-02-23T12:12:39;7.30;99.90
12911;DHT22;6523;49.758;6.120;2024-02-23T12:15:06;7.20;99.90
12911;DHT22;6523;49.758;6.120;2024-02-23T12:17:32;7.30;99.90
12911;DHT22;6523;49.758;6.120;2024-02-23T12:20:01;7.30;99.90
12911;DHT22;6523;49.758;6.120;2024-02-23T12:22:27;7.40;99.90
12911;DHT22;6523;49.758;6.120;2024-02-23T12:24:53;7.40;99.90
12911;DHT22;6523;49.758;6.120;2024-02-23T12:27:19;7.40;99.90
12911;DHT22;6523;49.758;6.120;2024-02-23T12:29:54;7.30;99.90
12911;DHT22;6523;49.758;6.120;2024-02-23T12:32:21;7.40;99.90
12911;DHT22;6523;49.758;6.120;2024-02-23T12:34:47;7.50;99.90
12911;DHT22;6523;49.758;6.120;2024-02-23T12:37:21;7.50;99.90
12911;DHT22;6523;49.758;6.120;2024-02-23T12:39:48;7.60;99.90
12911;DHT22;6523;49.758;6.120;2024-02-23T12:42:14;7.60;99.90
12911;DHT22;6523;49.758;6.120;2024-02-23T12:44:40;7.60;99.90
12911;DHT22;6523;49.758;6.120;2024-02-23T12:47:05;7.70;99.90
12911;DHT22;6523;49.758;6.120;2024-02-23T12:49:31;7.70;99.90
12911;DHT22;6523;49.758;6.120;2024-02-23T12:51:57;7.90;99.90
12911;DHT22;6523;49.758;6.120;2024-02-23T12:54:22;8.20;99.90
12911;DHT22;6523;49.758;6.120;2024-02-23T12:56:48;8.80;99.90
12911;DHT22;6523;49.758;6.120;2024-02-23T12:59:15;8.80;99.90
12911;DHT22;6523;49.758;6.120;2024-02-23T13:01:40;8.60;99.90
12911;DHT22;6523;49.758;6.120;2024-02-23T13:04:06;8.30;99.90
12911;DHT22;6523;49.758;6.120;2024-02-23T13:06:37;8.10;99.90
12911;DHT22;6523;49.758;6.120;2024-02-23T13:09:03;7.70;99.90
12911;DHT22;6523;49.758;6.120;2024-02-23T13:11:29;7.60;99.90
12911;DHT22;6523;49.758;6.120;2024-02-23T13:13:55;7.80;99.90
12911;DHT22;6523;49.758;6.120;2024-02-23T13:16:21;7.80;99.90
12911;DHT22;6523;49.758;6.120;2024-02-23T13:18:46;8.10;99.90
12911;DHT22;6523;49.758;6.120;2024-02-23T13:21:13;8.20;99.90
12911;DHT22;6523;49.758;6.120;2024-02-23T13:23:38;8.80;99.90
12911;DHT22;6523;49.758;6.120;2024-02-23T13:26:05;9.30;99.90
12911;DHT22;6523;49.758;6.120;2024-02-23T13:28:31;9.20;99.90
12911;DHT22;6523;49.758;6.120;2024-02-23T13:30:57;8.70;99.90
12911;DHT22;6523;49.758;6.120;2024-02-23T13:33:22;9.50;99.90
12911;DHT22;6523;49.758;6.120;2024-02-23T13:35:49;10.20;99.90
12911;DHT22;6523;49.758;6.120;2024-02-23T13:38:15;10.30;99.90
12911;DHT22;6523;49.758;6.120;2024-02-23T13:40:40;10.70;99.90
12911;DHT22;6523;49.758;6.120;2024-02-23T13:43:06;10.80;99.90
12911;DHT22;6523;49.758;6.120;2024-02-23T13:45:32;10.10;99.90
12911;DHT22;6523;49.758;6.120;2024-02-23T13:50:25;10.20;99.90
12911;DHT22;6523;49.758;6.120;2024-02-23T13:52:51;10.30;99.90
12911;DHT22;6523;49.758;6.120;2024-02-23T13:55:16;10.80;99.90
12911;DHT22;6523;49.758;6.120;2024-02-23T13:57:42;10.10;99.90
12911;DHT22;6523;49.758;6.120;2024-02-23T14:00:08;9.50;99.90
12911;DHT22;6523;49.758;6.120;2024-02-23T14:02:38;10.50;99.90
12911;DHT22;6523;49.758;6.120;2024-02-23T14:05:06;9.70;99.90
12911;DHT22;6523;49.758;6.120;2024-02-23T14:07:32;10.10;99.90
12911;DHT22;6523;49.758;6.120;2024-02-23T14:09:58;10.20;99.90
12911;DHT22;6523;49.758;6.120;2024-02-23T14:12:24;11.00;99.90
12911;DHT22;6523;49.758;6.120;2024-02-23T14:14:50;10.10;99.90
12911;DHT22;6523;49.758;6.120;2024-02-23T14:17:16;10.50;99.90
12911;DHT22;6523;49.758;6.120;2024-02-23T14:19:41;10.20;99.90
12911;DHT22;6523;49.758;6.120;2024-02-23T14:22:07;9.60;99.90
12911;DHT22;6523;49.758;6.120;2024-02-23T14:24:33;10.40;99.90
12911;DHT22;6523;49.758;6.120;2024-02-23T14:26:58;10.60;99.90
12911;DHT22;6523;49.758;6.120;2024-02-23T14:29:24;10.00;99.90
12911;DHT22;6523;49.758;6.120;2024-02-23T14:31:50;9.30;99.90
12911;DHT22;6523;49.758;6.120;2024-02-23T14:34:15;9.10;99.90
12911;DHT22;6523;49.758;6.120;2024-02-23T14:36:41;9.50;99.90
12911;DHT22;6523;49.758;6.120;2024-02-23T14:39:08;9.50;99.90
12911;DHT22;6523;49.758;6.120;2024-02-23T14:41:33;9.40;99.90
12911;DHT22;6523;49.758;6.120;2024-02-23T14:43:59;9.30;99.90
12911;DHT22;6523;49.758;6.120;2024-02-23T14:46:24;9.10;99.90
12911;DHT22;6523;49.758;6.120;2024-02-23T14:48:50;9.00;99.90
12911;DHT22;6523;49.758;6.120;2024-02-23T14:51:16;8.90;99.90
12911;DHT22;6523;49.758;6.120;2024-02-23T14:53:41;8.90;99.90
12911;DHT22;6523;49.758;6.120;2024-02-23T14:56:07;8.70;99.90
12911;DHT22;6523;49.758;6.120;2024-02-23T14:58:33;8.70;99.90
12911;DHT22;6523;49.758;6.120;2024-02-23T15:00:58;8.50;99.90
12911;DHT22;6523;49.758;6.120;2024-02-23T15:03:25;8.30;99.90
12911;DHT22;6523;49.758;6.120;2024-02-23T15:05:51;8.20;99.90
12911;DHT22;6523;49.758;6.120;2024-02-23T15:08:17;8.00;99.90
12911;DHT22;6523;49.758;6.120;2024-02-23T15:10:42;8.00;99.90
12911;DHT22;6523;49.758;6.120;2024-02-23T15:13:08;8.40;99.90
12911;DHT22;6523;49.758;6.120;2024-02-23T15:15:34;8.90;99.90
12911;DHT22;6523;49.758;6.120;2024-02-23T15:18:01;9.40;99.90
12911;DHT22;6523;49.758;6.120;2024-02-23T15:20:27;9.40;99.90
12911;DHT22;6523;49.758;6.120;2024-02-23T15:22:53;9.50;99.90
12911;DHT22;6523;49.758;6.120;2024-02-23T15:25:19;9.10;99.90
12911;DHT22;6523;49.758;6.120;2024-02-23T15:27:45;8.90;99.90
12911;DHT22;6523;49.758;6.120;2024-02-23T15:30:11;9.30;99.90
12911;DHT22;6523;49.758;6.120;2024-02-23T15:32:37;9.60;99.90
12911;DHT22;6523;49.758;6.120;2024-02-23T15:35:03;9.70;99.90
12911;DHT22;6523;49.758;6.120;2024-02-23T15:37:29;10.30;99.90
12911;DHT22;6523;49.758;6.120;2024-02-23T15:39:55;10.60;99.90
12911;DHT22;6523;49.758;6.120;2024-02-23T15:42:20;10.60;99.90
12911;DHT22;6523;49.758;6.120;2024-02-23T15:44:47;9.50;99.90
12911;DHT22;6523;49.758;6.120;2024-02-23T15:47:12;9.50;99.90
12911;DHT22;6523;49.758;6.120;2024-02-23T15:49:38;8.80;99.90
12911;DHT22;6523;49.758;6.120;2024-02-23T15:52:04;8.50;99.90
12911;DHT22;6523;49.758;6.120;2024-02-23T15:54:30;8.50;99.90
12911;DHT22;6523;49.758;6.120;2024-02-23T15:56:57;8.40;99.90